Time;durP1;ratioP1;P1;durP2;ratioP2;P2;SDS_P1;SDS_P2;PMS_P1;PMS_P2;Temp;Humidity;BMP_temperature;BMP_pressure;BME280_temperature;BME280_humidity;BME280_pressure;Samples;Min_cycle;Max_cycle;Signal;HPM_P1;HPM_P2
2024/01/04 00:01:50;;;;;;;0.80;0.80;;;;;;;7.90;73.47;97005.31;4978762;28;20039;-91
2024/01/04 00:04:15;;;;;;;0.80;0.80;;;;;;;7.70;74.73;96998.88;4977013;28;20448;-91
2024/01/04 00:06:44;;;;;;;0.80;0.80;;;;;;;7.47;76.40;97001.22;4959682;28;20478;-90
2024/01/04 00:09:10;;;;;;;0.90;0.90;;;;;;;7.35;77.61;97019.66;4973941;28;20067;-90
2024/01/04 00:11:36;;;;;;;0.80;0.80;;;;;;;7.27;78.10;97022.19;4960356;28;20137;-90
2024/01/04 00:14:02;;;;;;;0.70;0.70;;;;;;;7.26;78.53;97011.56;4980087;28;20034;-89
2024/01/04 00:16:28;;;;;;;0.80;0.80;;;;;;;7.09;79.24;97006.00;4977998;28;20554;-90
2024/01/04 00:18:53;;;;;;;0.80;0.80;;;;;;;7.28;77.66;97009.81;4961831;28;20030;-92
2024/01/04 00:21:19;;;;;;;0.80;0.80;;;;;;;7.25;77.65;97002.72;4977438;28;20469;-90
2024/01/04 00:23:44;;;;;;;0.80;0.80;;;;;;;7.41;76.46;97006.47;4975601;28;20038;-90
2024/01/04 00:26:10;;;;;;;0.80;0.80;;;;;;;7.37;76.84;97009.94;4977195;28;20259;-90
2024/01/04 00:28:36;;;;;;;0.90;0.90;;;;;;;7.36;76.88;97042.66;4971822;28;20045;-91
2024/01/04 00:31:01;;;;;;;0.90;0.90;;;;;;;7.15;78.89;97045.88;4958153;28;20035;-91
2024/01/04 00:33:27;;;;;;;0.80;0.80;;;;;;;7.01;79.63;97031.53;4965845;28;20042;-90
2024/01/04 00:35:53;;;;;;;0.90;0.90;;;;;;;6.87;80.58;97033.94;4955686;28;20041;-91
2024/01/04 00:38:18;;;;;;;0.80;0.80;;;;;;;6.82;80.73;97028.56;4989766;28;20023;-91
2024/01/04 00:40:44;;;;;;;0.90;0.90;;;;;;;6.83;80.83;97043.59;4972116;28;20579;-90
2024/01/04 00:43:10;;;;;;;0.90;0.90;;;;;;;6.84;80.78;97044.50;4975316;28;20138;-89
2024/01/04 00:45:35;;;;;;;0.90;0.90;;;;;;;6.79;81.78;97048.81;4984334;28;20183;-88
2024/01/04 00:48:02;;;;;;;0.80;0.80;;;;;;;6.68;81.72;97038.94;4962039;28;20030;-91
2024/01/04 00:50:27;;;;;;;0.90;0.90;;;;;;;6.66;81.71;97032.75;4982025;28;20027;-90
2024/01/04 00:52:53;;;;;;;0.80;0.80;;;;;;;6.64;82.57;97034.44;4979914;28;21663;-91
2024/01/04 00:55:18;;;;;;;0.80;0.80;;;;;;;6.58;82.43;97030.81;4978130;28;20051;-91
2024/01/04 00:57:44;;;;;;;0.90;0.90;;;;;;;6.72;81.59;97031.06;4981026;28;20763;-90
2024/01/04 01:00:11;;;;;;;0.80;0.80;;;;;;;6.62;82.38;97037.97;4979951;28;20378;-88
2024/01/04 01:02:38;;;;;;;0.90;0.90;;;;;;;6.64;82.59;97055.66;4995678;28;20035;-88
2024/01/04 01:05:05;;;;;;;0.90;0.90;;;;;;;6.67;82.50;97034.50;4958188;28;20030;-88
2024/01/04 01:07:30;;;;;;;0.80;0.80;;;;;;;6.77;82.15;97042.63;4963918;28;20045;-89
2024/01/04 01:09:56;;;;;;;0.80;0.80;;;;;;;6.68;82.37;97056.59;4981481;28;20046;-89
2024/01/04 01:12:21;;;;;;;0.80;0.80;;;;;;;6.62;82.73;97056.50;4979901;28;20377;-88
2024/01/04 01:14:50;;;;;;;0.90;0.90;;;;;;;6.75;81.63;97055.81;4984318;28;20038;-89
2024/01/04 01:17:15;;;;;;;0.85;0.85;;;;;;;6.75;81.48;97053.19;4962924;28;20049;-88
2024/01/04 01:19:43;;;;;;;0.90;0.90;;;;;;;6.82;80.46;97052.44;4976994;28;20034;-89
2024/01/04 01:22:09;;;;;;;0.90;0.90;;;;;;;6.82;80.60;97055.09;4961661;28;20047;-89
2024/01/04 01:24:34;;;;;;;0.90;0.90;;;;;;;6.87;80.26;97068.41;4975704;28;20027;-89
2024/01/04 01:27:00;;;;;;;0.90;0.90;;;;;;;6.97;79.38;97090.66;4991637;28;20049;-90
2024/01/04 01:29:25;;;;;;;0.88;0.88;;;;;;;6.93;79.94;97085.31;4974081;28;20042;-89
2024/01/04 01:31:52;;;;;;;0.88;0.88;;;;;;;6.96;78.85;97089.78;4977824;28;20027;-89
2024/01/04 01:34:18;;;;;;;0.90;0.90;;;;;;;6.87;79.03;97093.16;4979941;28;20023;-90
2024/01/04 01:36:44;;;;;;;0.80;0.80;;;;;;;6.86;78.88;97098.44;4975539;28;20559;-89
2024/01/04 01:39:09;;;;;;;0.90;0.90;;;;;;;6.72;79.78;97084.94;4983804;28;20035;-90
2024/01/04 01:41:35;;;;;;;0.90;0.90;;;;;;;6.72;79.61;97086.72;4959771;28;20018;-90
2024/01/04 01:44:00;;;;;;;0.90;0.90;;;;;;;6.65;79.91;97077.75;4972134;28;20035;-88
2024/01/04 01:46:26;;;;;;;0.90;0.90;;;;;;;6.62;80.17;97072.41;4962590;28;20037;-89
2024/01/04 01:48:52;;;;;;;0.90;0.90;;;;;;;6.62;80.57;97075.94;4976046;28;20053;-89
2024/01/04 01:51:17;;;;;;;0.80;0.80;;;;;;;6.70;80.17;97073.41;4975340;28;20039;-89
2024/01/04 01:53:43;;;;;;;0.90;0.90;;;;;;;6.73;80.08;97076.13;4967634;28;20030;-90
2024/01/04 01:56:09;;;;;;;0.90;0.90;;;;;;;6.59;80.77;97083.81;4977245;28;20039;-88
2024/01/04 01:58:36;;;;;;;0.90;0.90;;;;;;;6.67;79.93;97081.31;4959419;28;20130;-90
2024/01/04 02:01:01;;;;;;;;;;;;;;;6.72;80.05;97084.94;4979149;28;20468;-89
2024/01/04 02:03:28;;;;;;;0.80;0.80;;;;;;;6.68;80.14;97083.09;4973710;28;19949;-89
2024/01/04 02:05:54;;;;;;;0.90;0.90;;;;;;;6.91;78.98;97083.50;4972391;28;20054;-90
2024/01/04 02:08:19;;;;;;;0.90;0.90;;;;;;;6.85;79.63;97096.63;4989479;28;20442;-89
2024/01/04 02:10:46;;;;;;;0.90;0.90;;;;;;;7.12;78.28;97098.88;4964774;28;20066;-90
2024/01/04 02:13:12;;;;;;;0.90;0.90;;;;;;;7.22;77.73;97103.44;4980201;28;20092;-89
2024/01/04 02:15:37;;;;;;;0.75;0.75;;;;;;;7.15;78.55;97104.22;4975102;28;20485;-90
2024/01/04 02:18:03;;;;;;;0.90;0.90;;;;;;;7.14;78.63;97111.31;4976819;28;20027;-89
2024/01/04 02:20:29;;;;;;;0.80;0.80;;;;;;;7.18;78.80;97117.53;4977289;28;20107;-89
2024/01/04 02:22:54;;;;;;;0.88;0.88;;;;;;;7.24;77.92;97099.06;4962404;28;20050;-90
2024/01/04 02:25:20;;;;;;;0.80;0.80;;;;;;;7.22;78.16;97113.16;4974237;28;20432;-89
2024/01/04 02:27:46;;;;;;;0.80;0.80;;;;;;;7.26;77.66;97123.84;4978378;28;20046;-91
2024/01/04 02:30:11;;;;;;;0.80;0.80;;;;;;;7.28;78.06;97121.22;4991107;28;20049;-90
2024/01/04 02:32:37;;;;;;;0.80;0.80;;;;;;;7.27;77.62;97124.75;4990516;28;20038;-91
2024/01/04 02:35:04;;;;;;;0.80;0.80;;;;;;;7.31;77.04;97140.72;4983552;28;20034;-90
2024/01/04 02:37:31;;;;;;;0.90;0.90;;;;;;;7.33;76.48;97149.63;4960225;28;20114;-90
2024/01/04 02:39:56;;;;;;;0.80;0.80;;;;;;;7.33;76.43;97149.63;4978328;28;20018;-91
2024/01/04 02:42:22;;;;;;;0.73;0.73;;;;;;;7.37;76.43;97142.59;4964560;28;20038;-91
2024/01/04 02:44:47;;;;;;;0.80;0.80;;;;;;;7.42;75.86;97151.50;4982613;28;20034;-90
2024/01/04 02:47:13;;;;;;;0.80;0.80;;;;;;;7.45;75.76;97147.16;4980241;28;20694;-90
2024/01/04 02:49:38;;;;;;;0.80;0.80;;;;;;;7.43;76.06;97148.00;5002296;28;20038;-89
2024/01/04 02:52:04;;;;;;;0.90;0.90;;;;;;;7.51;75.42;97137.50;4981810;28;20034;-89
2024/01/04 02:54:30;;;;;;;0.85;0.85;;;;;;;7.55;75.33;97147.31;4976526;28;20089;-92
2024/01/04 02:56:58;;;;;;;0.90;0.90;;;;;;;7.64;74.81;97158.06;4964226;28;20181;-90
2024/01/04 02:59:25;;;;;;;0.80;0.80;;;;;;;7.69;74.90;97151.06;4989764;28;20481;-90
2024/01/04 03:01:51;;;;;;;0.90;0.90;;;;;;;7.68;74.81;97147.50;4983513;28;20117;-91
2024/01/04 03:04:16;;;;;;;0.80;0.80;;;;;;;7.62;75.08;97128.84;4975386;28;20420;-90
2024/01/04 03:06:42;;;;;;;0.80;0.80;;;;;;;7.56;75.30;97142.00;4976615;28;20038;-90
2024/01/04 03:09:09;;;;;;;0.80;0.80;;;;;;;7.50;75.36;97147.22;4990096;28;20054;-88
2024/01/04 03:11:35;;;;;;;0.80;0.80;;;;;;;7.61;74.91;97131.47;4942061;28;20069;-91
2024/01/04 03:14:00;;;;;;;0.70;0.70;;;;;;;7.51;74.79;97134.84;4957701;28;20038;-90
2024/01/04 03:16:27;;;;;;;0.80;0.80;;;;;;;7.43;75.23;97135.63;4957871;28;20049;-91
2024/01/04 03:18:52;;;;;;;0.80;0.80;;;;;;;7.30;75.43;97144.25;4960744;28;20023;-91
2024/01/04 03:21:18;;;;;;;0.80;0.80;;;;;;;7.27;75.26;97144.19;4978115;28;20393;-91
2024/01/04 03:23:43;;;;;;;0.90;0.90;;;;;;;7.32;74.70;97154.88;4977473;28;20477;-90
2024/01/04 03:26:09;;;;;;;0.80;0.80;;;;;;;7.32;74.83;97146.94;4979829;28;20038;-91
2024/01/04 03:28:34;;;;;;;0.90;0.90;;;;;;;7.27;75.01;97143.31;4976746;28;20601;-91
2024/01/04 03:31:01;;;;;;;0.80;0.80;;;;;;;7.22;75.47;97155.59;4959450;28;20046;-91
2024/01/04 03:33:27;;;;;;;0.80;0.80;;;;;;;7.19;75.37;97151.16;4939568;28;20042;-89
2024/01/04 03:35:52;;;;;;;0.82;0.82;;;;;;;7.08;75.93;97145.66;4977291;28;20092;-90
2024/01/04 03:38:18;;;;;;;0.80;0.80;;;;;;;7.13;75.05;97137.78;4970659;28;20035;-90
2024/01/04 03:40:44;;;;;;;0.90;0.90;;;;;;;7.11;75.39;97143.06;4976764;28;20042;-90
2024/01/04 03:43:10;;;;;;;0.90;0.90;;;;;;;7.26;74.41;97136.22;4975797;28;20049;-89
2024/01/04 03:45:35;;;;;;;0.82;0.82;;;;;;;7.25;74.93;97145.94;4975718;28;20548;-88
2024/01/04 03:48:01;;;;;;;0.80;0.80;;;;;;;7.24;75.07;97141.53;4959363;28;20413;-88
2024/01/04 03:50:26;;;;;;;0.90;0.90;;;;;;;7.18;75.60;97138.75;4975485;28;20027;-91
2024/01/04 03:52:52;;;;;;;0.80;0.80;;;;;;;7.11;76.32;97145.72;4975492;28;20062;-90
2024/01/04 03:55:18;;;;;;;0.90;0.90;;;;;;;6.86;78.07;97141.75;4955980;28;20023;-90
2024/01/04 03:57:44;;;;;;;0.90;0.90;;;;;;;6.67;80.40;97155.53;4983197;28;20031;-89
2024/01/04 04:00:10;;;;;;;0.80;0.80;;;;;;;6.43;82.01;97156.84;4982045;28;20026;-91
2024/01/04 04:02:39;;;;;;;0.90;0.90;;;;;;;6.36;83.27;97176.09;4969782;28;20035;-90
2024/01/04 04:05:05;;;;;;;0.90;0.90;;;;;;;6.34;83.86;97169.91;4976806;28;20041;-90
2024/01/04 04:07:33;;;;;;;0.90;0.90;;;;;;;6.35;84.21;97182.28;4989072;28;20046;-90
2024/01/04 04:09:58;;;;;;;0.90;0.90;;;;;;;6.37;83.62;97190.22;4972409;28;20038;-90
2024/01/04 04:12:25;;;;;;;0.90;0.90;;;;;;;6.39;83.36;97189.41;4956433;28;20027;-90
2024/01/04 04:14:51;;;;;;;0.90;0.90;;;;;;;6.36;83.94;97191.09;4971351;28;20097;-89
2024/01/04 04:17:18;;;;;;;0.90;0.90;;;;;;;6.44;83.03;97208.06;4957528;28;20041;-89
2024/01/04 04:19:44;;;;;;;0.80;0.80;;;;;;;6.40;83.39;97199.16;4972267;28;20113;-89
2024/01/04 04:22:09;;;;;;;0.80;0.80;;;;;;;6.26;84.83;97205.03;4974891;28;20133;-90
2024/01/04 04:24:35;;;;;;;0.80;0.80;;;;;;;6.37;84.25;97203.47;4968200;28;20085;-90
2024/01/04 04:27:00;;;;;;;0.90;0.90;;;;;;;6.38;84.13;97207.94;4985506;28;20034;-89
2024/01/04 04:29:26;;;;;;;0.80;0.80;;;;;;;6.28;85.34;97201.56;4954542;28;20574;-89
2024/01/04 04:31:51;;;;;;;0.90;0.90;;;;;;;6.34;84.67;97198.13;4974667;28;20034;-90
2024/01/04 04:34:17;;;;;;;0.80;0.80;;;;;;;6.42;84.00;97200.09;4977010;28;20051;-90
2024/01/04 04:36:43;;;;;;;0.80;0.80;;;;;;;6.46;83.38;97203.66;4990548;28;20046;-91
2024/01/04 04:39:09;;;;;;;0.88;0.88;;;;;;;6.54;83.64;97209.13;4963303;28;20042;-92
2024/01/04 04:41:35;;;;;;;0.80;0.80;;;;;;;6.59;82.81;97202.19;4973167;28;20715;-91
2024/01/04 04:44:00;;;;;;;0.80;0.80;;;;;;;6.70;82.75;97203.28;4976709;28;20039;-91
2024/01/04 04:46:27;;;;;;;0.90;0.90;;;;;;;6.55;83.71;97213.56;4975386;28;20536;-92
2024/01/04 04:48:55;;;;;;;0.90;0.90;;;;;;;6.60;83.43;97212.78;4956840;28;20086;-90
2024/01/04 04:51:25;;;;;;;0.80;0.80;;;;;;;6.63;83.04;97214.63;4965539;28;20027;-90
2024/01/04 04:53:51;;;;;;;0.80;0.80;;;;;;;6.56;83.63;97215.34;4976789;28;20041;-91
2024/01/04 04:56:17;;;;;;;0.90;0.90;;;;;;;6.66;83.32;97220.88;4964400;28;20030;-92
2024/01/04 04:58:43;;;;;;;0.80;0.80;;;;;;;6.66;83.43;97217.34;4974372;28;20038;-91
2024/01/04 05:01:08;;;;;;;0.80;0.80;;;;;;;6.76;82.40;97237.88;4984775;28;20046;-91
2024/01/04 05:03:35;;;;;;;0.90;0.90;;;;;;;7.02;80.55;97224.22;4978042;28;20043;-90
2024/01/04 05:06:00;;;;;;;0.80;0.80;;;;;;;7.29;78.64;97234.44;4967272;28;20048;-91
2024/01/04 05:08:26;;;;;;;0.80;0.80;;;;;;;7.42;78.28;97228.47;4974932;28;20035;-90
2024/01/04 05:10:52;;;;;;;0.80;0.80;;;;;;;7.29;79.09;97248.59;4984019;28;20038;-91
2024/01/04 05:13:17;;;;;;;0.80;0.80;;;;;;;7.28;79.16;97253.84;4983855;28;20050;-91
2024/01/04 05:15:44;;;;;;;0.80;0.80;;;;;;;7.27;78.89;97254.72;4998495;28;20110;-91
2024/01/04 05:18:09;;;;;;;0.90;0.90;;;;;;;7.57;76.78;97262.31;4966929;28;20023;-91
2024/01/04 05:20:35;;;;;;;0.73;0.73;;;;;;;7.43;78.00;97270.97;4982485;28;20042;-90
2024/01/04 05:23:01;;;;;;;0.80;0.80;;;;;;;7.31;78.19;97257.47;4963913;28;20031;-90
2024/01/04 05:25:26;;;;;;;0.80;0.80;;;;;;;7.31;78.67;97254.81;4967092;28;20094;-91
2024/01/04 05:27:52;;;;;;;0.80;0.80;;;;;;;7.30;78.19;97255.69;4996782;28;20034;-90
2024/01/04 05:30:20;;;;;;;0.80;0.80;;;;;;;7.26;78.64;97256.47;4977242;28;20038;-91
2024/01/04 05:32:46;;;;;;;0.80;0.80;;;;;;;7.29;78.79;97256.56;4976495;28;20054;-90
2024/01/04 05:35:12;;;;;;;0.90;0.90;;;;;;;7.33;78.72;97266.34;4979075;28;20038;-91
2024/01/04 05:37:39;;;;;;;0.80;0.80;;;;;;;7.39;78.45;97265.56;4984504;28;20094;-90
2024/01/04 05:40:05;;;;;;;0.90;0.90;;;;;;;7.27;79.92;97260.91;4999768;28;20030;-91
2024/01/04 05:42:31;;;;;;;0.80;0.80;;;;;;;7.23;80.00;97274.97;4987815;28;20035;-91
2024/01/04 05:44:57;;;;;;;0.80;0.80;;;;;;;7.22;79.45;97278.50;4997434;28;20041;-91
2024/01/04 05:47:22;;;;;;;0.80;0.80;;;;;;;7.18;79.95;97285.50;4969647;28;20030;-90
2024/01/04 05:49:48;;;;;;;0.80;0.80;;;;;;;7.10;80.36;97307.47;4958045;28;20398;-91
2024/01/04 05:52:13;;;;;;;0.80;0.80;;;;;;;7.12;80.35;97297.78;4966063;28;20042;-90
2024/01/04 05:54:39;;;;;;;0.88;0.88;;;;;;;7.12;79.69;97305.72;4968591;28;20078;-89
2024/01/04 05:57:05;;;;;;;0.70;0.70;;;;;;;7.05;80.55;97311.78;4959322;28;20615;-92
2024/01/04 05:59:31;;;;;;;0.70;0.70;;;;;;;7.03;80.48;97313.50;4981306;28;20105;-90
2024/01/04 06:01:56;;;;;;;0.80;0.80;;;;;;;6.93;80.93;97331.88;4982886;28;20507;-90
2024/01/04 06:04:22;;;;;;;0.80;0.80;;;;;;;6.81;81.89;97325.44;4975688;28;20401;-90
2024/01/04 06:06:48;;;;;;;0.85;0.85;;;;;;;6.79;82.16;97328.03;4980365;28;20050;-90
2024/01/04 06:09:20;;;;;;;0.80;0.80;;;;;;;6.70;83.27;97341.09;4960010;28;20043;-89
2024/01/04 06:11:46;;;;;;;0.90;0.90;;;;;;;6.71;82.50;97336.66;4978206;28;20069;-90
2024/01/04 06:14:12;;;;;;;0.80;0.80;;;;;;;6.72;82.31;97347.34;4979701;28;20058;-90
2024/01/04 06:16:38;;;;;;;0.80;0.80;;;;;;;6.70;83.11;97354.34;4977343;28;20382;-90
2024/01/04 06:19:03;;;;;;;0.90;0.90;;;;;;;6.78;82.49;97357.16;4981880;28;20073;-91
2024/01/04 06:21:30;;;;;;;0.80;0.80;;;;;;;6.80;82.18;97364.28;4963700;28;20035;-90
2024/01/04 06:23:59;;;;;;;0.80;0.80;;;;;;;6.74;82.39;97364.16;4980984;28;20532;-91
2024/01/04 06:26:25;;;;;;;0.80;0.80;;;;;;;6.88;81.35;97369.75;4963470;28;20030;-90
2024/01/04 06:28:50;;;;;;;0.80;0.80;;;;;;;6.91;81.16;97368.06;4980381;28;20078;-91
2024/01/04 06:31:17;;;;;;;0.80;0.80;;;;;;;6.95;80.85;97374.34;4977983;28;20485;-91
2024/01/04 06:33:44;;;;;;;0.90;0.90;;;;;;;6.91;81.18;97375.13;4974284;28;20042;-90
2024/01/04 06:36:11;;;;;;;0.90;0.90;;;;;;;6.86;81.17;97377.69;4958268;28;20361;-93
2024/01/04 06:38:38;;;;;;;0.80;0.80;;;;;;;6.89;81.30;97372.44;4959965;28;20074;-94
2024/01/04 06:41:07;;;;;;;0.90;0.90;;;;;;;7.01;80.09;97374.47;4973579;28;20062;-94
2024/01/04 06:43:37;;;;;;;0.90;0.90;;;;;;;7.05;80.02;97386.03;4959497;28;20035;-90
2024/01/04 06:46:02;;;;;;;0.80;0.80;;;;;;;6.96;80.70;97397.34;4970135;28;20062;-92
2024/01/04 06:48:35;;;;;;;0.90;0.90;;;;;;;6.85;81.84;97399.75;4973910;28;20769;-91
2024/01/04 06:51:03;;;;;;;0.90;0.90;;;;;;;6.83;82.17;97412.06;4968703;28;20047;-93
2024/01/04 06:53:32;;;;;;;0.75;0.75;;;;;;;6.79;82.46;97414.63;4956276;28;20034;-91
2024/01/04 06:55:58;;;;;;;0.80;0.80;;;;;;;6.68;83.50;97415.28;4958164;28;20390;-93
2024/01/04 06:58:23;;;;;;;0.80;0.80;;;;;;;6.69;83.35;97426.75;4976710;28;20033;-88
2024/01/04 07:00:50;;;;;;;0.70;0.70;;;;;;;6.64;83.41;97431.06;4978464;28;20053;-91
2024/01/04 07:03:19;;;;;;;0.80;0.80;;;;;;;6.66;83.69;97422.31;4958452;28;20125;-91
2024/01/04 07:05:45;;;;;;;0.80;0.80;;;;;;;6.64;83.52;97431.06;4963632;28;20621;-90
2024/01/04 07:08:12;;;;;;;0.80;0.80;;;;;;;6.68;83.03;97433.81;4977098;28;20034;-92
2024/01/04 07:10:40;;;;;;;0.80;0.80;;;;;;;6.78;82.07;97429.63;4977875;28;20138;-91
2024/01/04 07:13:06;;;;;;;0.85;0.85;;;;;;;6.77;82.02;97440.19;4992402;28;20049;-91
2024/01/04 07:15:32;;;;;;;0.80;0.80;;;;;;;6.89;80.56;97430.75;4977887;28;20035;-91
2024/01/04 07:17:58;;;;;;;0.90;0.90;;;;;;;6.91;80.06;97449.38;4978785;28;20158;-91
2024/01/04 07:20:25;;;;;;;0.80;0.80;;;;;;;6.87;80.63;97453.69;4969741;28;20457;-90
2024/01/04 07:22:52;;;;;;;0.90;0.90;;;;;;;6.86;80.63;97478.41;4992836;28;20046;-91
2024/01/04 07:25:18;;;;;;;0.90;0.90;;;;;;;6.96;79.65;97471.56;4978300;28;20036;-89
2024/01/04 07:27:44;;;;;;;0.90;0.90;;;;;;;6.98;79.32;97463.66;4981970;28;20038;-90
2024/01/04 07:30:10;;;;;;;0.85;0.85;;;;;;;7.07;78.92;97478.00;4986322;28;20472;-89
2024/01/04 07:32:37;;;;;;;0.82;0.82;;;;;;;7.06;78.93;97472.69;4982691;28;20048;-90
2024/01/04 07:35:04;;;;;;;0.88;0.88;;;;;;;7.12;78.54;97468.41;4966528;28;20039;-88
2024/01/04 07:37:29;;;;;;;0.85;0.85;;;;;;;7.17;77.79;97477.34;4977976;28;20062;-87
2024/01/04 07:39:55;;;;;;;0.80;0.80;;;;;;;7.30;76.83;97475.88;4980240;28;20034;-89
2024/01/04 07:42:20;;;;;;;0.80;0.80;;;;;;;7.35;76.74;97482.16;4962325;28;20045;-90
2024/01/04 07:44:46;;;;;;;0.80;0.80;;;;;;;7.30;77.16;97485.59;4992416;28;20045;-89
2024/01/04 07:47:12;;;;;;;0.80;0.80;;;;;;;7.29;77.42;97497.97;4975571;28;20034;-89
2024/01/04 07:49:41;;;;;;;0.80;0.80;;;;;;;7.14;78.41;97500.28;4986069;28;20121;-89
2024/01/04 07:52:07;;;;;;;0.80;0.80;;;;;;;7.09;77.87;97497.53;4987306;28;20031;-90
2024/01/04 07:54:33;;;;;;;0.80;0.80;;;;;;;7.01;78.55;97496.44;4978626;28;20118;-91
2024/01/04 07:57:00;;;;;;;0.90;0.90;;;;;;;7.09;78.31;97491.28;4976265;28;20094;-92
2024/01/04 07:59:26;;;;;;;0.80;0.80;;;;;;;7.26;77.26;97497.00;4986287;28;20039;-93
2024/01/04 08:01:55;;;;;;;0.80;0.80;;;;;;;7.20;77.67;97493.34;4978037;28;20039;-93
2024/01/04 08:04:23;;;;;;;0.80;0.80;;;;;;;7.40;76.34;97509.69;4978484;28;20066;-92
2024/01/04 08:06:50;;;;;;;0.80;0.80;;;;;;;7.42;76.10;97521.22;4980256;28;20093;-91
2024/01/04 08:09:18;;;;;;;0.80;0.80;;;;;;;7.51;75.67;97509.03;4980947;28;20129;-92
2024/01/04 08:11:43;;;;;;;0.80;0.80;;;;;;;7.48;75.41;97508.97;4986316;28;20046;-92
2024/01/04 08:14:09;;;;;;;0.80;0.80;;;;;;;7.58;74.81;97519.81;4983403;28;20034;-91
2024/01/04 08:16:34;;;;;;;0.90;0.90;;;;;;;7.65;74.43;97510.22;4984553;28;20065;-91
2024/01/04 08:19:00;;;;;;;0.80;0.80;;;;;;;7.56;75.08;97513.56;4964003;28;20023;-91
2024/01/04 08:21:25;;;;;;;0.80;0.80;;;;;;;7.59;75.04;97523.38;4964704;28;20034;-91
2024/01/04 08:23:51;;;;;;;0.80;0.80;;;;;;;7.58;75.47;97524.22;5000283;28;20027;-92
2024/01/04 08:26:17;;;;;;;0.90;0.90;;;;;;;7.76;73.75;97529.94;5003857;28;20038;-92
2024/01/04 08:28:43;;;;;;;0.90;0.90;;;;;;;7.88;74.16;97518.66;5001361;28;20038;-91
2024/01/04 08:31:08;;;;;;;0.80;0.80;;;;;;;8.08;73.33;97524.34;4992198;28;20049;-91
2024/01/04 08:33:34;;;;;;;0.80;0.80;;;;;;;8.14;73.10;97519.16;4978138;28;20038;-91
2024/01/04 08:36:01;;;;;;;0.90;0.90;;;;;;;8.20;72.75;97524.59;4981148;28;20065;-91
2024/01/04 08:38:30;;;;;;;0.80;0.80;;;;;;;8.27;72.39;97531.81;4981319;28;20500;-92
2024/01/04 08:40:56;;;;;;;0.70;0.70;;;;;;;8.24;72.24;97526.47;4982502;28;20011;-90
2024/01/04 08:43:23;;;;;;;0.80;0.80;;;;;;;8.28;71.84;97527.38;4971422;28;20148;-91
2024/01/04 08:45:50;;;;;;;0.80;0.80;;;;;;;8.34;72.05;97528.41;4993085;28;20034;-90
2024/01/04 08:48:17;;;;;;;0.77;0.77;;;;;;;8.65;70.66;97521.00;4976522;28;20585;-88
2024/01/04 08:50:42;;;;;;;;;;;;;;;8.67;70.42;97521.91;4986410;28;20057;-90
2024/01/04 08:53:08;;;;;;;0.80;0.80;;;;;;;8.76;70.07;97521.19;4990237;28;20268;-90
2024/01/04 08:55:33;;;;;;;0.80;0.80;;;;;;;8.83;68.78;97523.09;4973193;28;20481;-91
2024/01/04 08:57:59;;;;;;;0.80;0.80;;;;;;;8.79;69.81;97516.81;4998029;28;20030;-92
2024/01/04 09:00:24;;;;;;;0.70;0.70;;;;;;;8.65;69.15;97523.66;4980320;28;20045;-91
2024/01/04 09:02:50;;;;;;;0.70;0.70;;;;;;;8.78;68.87;97520.34;4964779;28;20073;-91
2024/01/04 09:05:15;;;;;;;0.80;0.80;;;;;;;8.85;67.97;97519.56;4961887;28;20041;-91
2024/01/04 09:07:41;;;;;;;0.70;0.70;;;;;;;8.84;68.49;97531.09;4979124;28;20047;-91
2024/01/04 09:10:08;;;;;;;0.73;0.73;;;;;;;8.89;67.23;97526.72;4979452;28;20042;-92
2024/01/04 09:12:33;;;;;;;0.70;0.70;;;;;;;8.88;68.51;97538.25;4972327;28;20031;-92
2024/01/04 09:14:59;;;;;;;0.80;0.80;;;;;;;8.64;68.72;97541.38;4976717;28;20054;-92
2024/01/04 09:17:25;;;;;;;0.70;0.70;;;;;;;8.62;68.79;97536.88;4975551;28;20047;-93
2024/01/04 09:19:51;;;;;;;0.80;0.80;;;;;;;8.57;66.99;97543.91;4975200;28;20046;-92
2024/01/04 09:22:17;;;;;;;0.80;0.80;;;;;;;8.56;67.81;97550.97;4984848;28;20114;-92
2024/01/04 09:24:44;;;;;;;0.70;0.70;;;;;;;8.53;67.85;97532.34;4994812;28;20070;-91
2024/01/04 09:27:13;;;;;;;0.80;0.80;;;;;;;8.64;67.11;97548.47;4991955;28;20046;-92
2024/01/04 09:29:39;;;;;;;0.73;0.73;;;;;;;8.83;65.78;97560.31;4996082;28;20042;-92
2024/01/04 09:32:04;;;;;;;0.77;0.77;;;;;;;8.87;66.16;97564.81;4981582;28;20023;-92
2024/01/04 09:34:30;;;;;;;0.80;0.80;;;;;;;8.84;66.54;97576.28;4961394;28;20069;-92
2024/01/04 09:36:56;;;;;;;0.70;0.70;;;;;;;8.90;66.29;97579.06;4973615;28;20096;-91
2024/01/04 09:39:21;;;;;;;0.80;0.80;;;;;;;9.05;66.38;97582.84;4958660;28;20019;-91
2024/01/04 09:41:48;;;;;;;0.70;0.70;;;;;;;8.99;66.32;97579.22;4985696;28;20049;-91
2024/01/04 09:44:14;;;;;;;0.80;0.80;;;;;;;8.97;65.58;97572.09;4980597;28;20039;-91
2024/01/04 09:46:42;;;;;;;0.80;0.80;;;;;;;8.88;65.71;97572.81;4980195;28;20389;-93
2024/01/04 09:49:11;;;;;;;0.80;0.80;;;;;;;8.90;65.41;97579.06;4996737;28;20160;-92
2024/01/04 09:51:38;;;;;;;0.75;0.75;;;;;;;8.95;65.61;97580.03;4997313;28;20034;-92
2024/01/04 09:54:12;;;;;;;0.70;0.70;;;;;;;8.82;66.41;97590.44;4979185;28;20532;-92
2024/01/04 09:56:40;;;;;;;0.80;0.80;;;;;;;8.76;66.33;97596.53;4983028;28;20061;-92
2024/01/04 09:59:09;;;;;;;0.80;0.80;;;;;;;8.79;65.89;97601.91;5000271;28;20070;-91
2024/01/04 10:01:38;;;;;;;0.70;0.70;;;;;;;8.76;64.95;97601.84;4995392;28;20122;-91
2024/01/04 10:04:14;;;;;;;0.80;0.80;;;;;;;8.79;65.00;97606.34;4997646;28;20071;-91
2024/01/04 10:06:45;;;;;;;0.80;0.80;;;;;;;8.85;65.01;97606.44;4990658;28;20059;-91
2024/01/04 10:09:30;;;;;;;0.80;0.80;;;;;;;8.80;65.04;97609.03;4992310;28;20027;-91
2024/01/04 10:11:58;;;;;;;0.80;0.80;;;;;;;8.86;64.15;97608.22;4992414;28;20031;-89
2024/01/04 10:14:25;;;;;;;0.80;0.80;;;;;;;8.95;62.20;97603.06;4996143;28;20027;-89
2024/01/04 10:16:51;;;;;;;0.82;0.82;;;;;;;9.00;62.13;97607.59;4984733;28;20031;-90
2024/01/04 10:19:18;;;;;;;0.88;0.88;;;;;;;9.13;60.79;97608.72;4987567;28;20026;-90
2024/01/04 10:21:44;;;;;;;0.80;0.80;;;;;;;9.22;61.37;97623.94;4985984;28;20042;-89
2024/01/04 10:24:14;;;;;;;0.88;0.88;;;;;;;9.43;61.37;97626.03;4982429;28;20086;-90
2024/01/04 10:26:44;;;;;;;0.80;0.80;;;;;;;9.58;60.37;97607.66;4981936;28;20035;-90
2024/01/04 10:29:10;;;;;;;0.80;0.80;;;;;;;9.61;59.98;97618.34;4979988;28;20034;-90
2024/01/04 10:31:36;;;;;;;0.80;0.80;;;;;;;10.32;58.07;97609.56;4978015;28;20030;-90
2024/01/04 10:34:01;;;;;;;0.80;0.80;;;;;;;11.04;55.79;97607.66;4977014;28;20113;-90
2024/01/04 10:36:32;;;;;;;0.70;0.70;;;;;;;10.39;57.80;97614.06;4959814;28;20148;-91
2024/01/04 10:39:09;;;;;;;0.90;0.90;;;;;;;11.08;55.52;97614.81;4955686;28;20128;-92
2024/01/04 10:41:34;;;;;;;0.80;0.80;;;;;;;11.08;56.26;97625.50;4977701;28;20726;-90
2024/01/04 10:44:07;;;;;;;0.70;0.70;;;;;;;10.48;58.08;97632.84;4974722;28;20049;-90
2024/01/04 10:46:36;;;;;;;0.90;0.90;;;;;;;10.91;56.30;97660.00;4976416;28;20035;-90
2024/01/04 10:49:03;;;;;;;0.90;0.90;;;;;;;12.19;53.39;97640.56;4980127;28;20043;-90
2024/01/04 10:51:33;;;;;;;0.73;0.73;;;;;;;12.40;52.75;97639.78;4977334;28;20034;-90
2024/01/04 10:54:02;;;;;;;0.80;0.80;;;;;;;12.24;52.44;97644.16;4991829;28;20042;-90
2024/01/04 10:56:35;;;;;;;0.70;0.70;;;;;;;12.27;51.67;97646.88;4976837;28;20137;-89
2024/01/04 10:59:03;;;;;;;0.75;0.75;;;;;;;12.73;50.50;97645.25;4976368;28;20390;-90
2024/01/04 11:01:29;;;;;;;0.80;0.80;;;;;;;12.33;51.79;97644.22;4992639;28;20079;-89
2024/01/04 11:03:58;;;;;;;0.80;0.80;;;;;;;12.43;51.96;97647.81;4976786;28;20035;-90
2024/01/04 11:06:26;;;;;;;0.70;0.70;;;;;;;13.07;50.17;97622.13;4997709;28;20038;-90
2024/01/04 11:08:54;;;;;;;0.80;0.80;;;;;;;13.37;49.72;97639.19;4971244;28;20066;-88
2024/01/04 11:11:20;;;;;;;0.70;0.70;;;;;;;12.62;50.61;97638.97;4981143;28;20026;-89
2024/01/04 11:13:45;;;;;;;0.80;0.80;;;;;;;12.95;51.07;97643.53;4976668;28;20041;-91
2024/01/04 11:16:26;;;;;;;0.80;0.80;;;;;;;14.11;48.35;97634.63;4974412;28;20038;-89
2024/01/04 11:19:13;;;;;;;0.70;0.70;;;;;;;13.48;49.07;97648.09;4991352;28;20030;-88
2024/01/04 11:22:07;;;;;;;0.70;0.70;;;;;;;13.41;49.91;97645.41;4954582;28;20045;-89
2024/01/04 11:24:54;;;;;;;0.70;0.70;;;;;;;12.90;50.52;97636.41;4965507;28;20475;-90
2024/01/04 11:27:22;;;;;;;0.70;0.70;;;;;;;12.19;53.77;97653.94;4986788;28;20060;-89
2024/01/04 11:29:49;;;;;;;0.60;0.60;;;;;;;11.21;55.75;97638.09;4976766;28;20511;-90
2024/01/04 11:32:16;;;;;;;0.60;0.60;;;;;;;10.81;57.62;97650.13;4975253;28;20421;-91
2024/01/04 11:34:47;;;;;;;0.70;0.70;;;;;;;10.22;59.02;97643.19;4979872;28;20093;-89
2024/01/04 11:37:20;;;;;;;0.60;0.60;;;;;;;9.80;60.21;97654.13;4968548;28;20713;-89
2024/01/04 11:39:56;;;;;;;0.60;0.60;;;;;;;9.59;62.05;97656.47;4985273;28;20057;-90